sensor_id;sensor_type;location;lat;lon;timestamp;temperature;humidity
43884;DHT22;29544;52.018;5.810;2023-03-26T00:00:45;16.80;59.60
43884;DHT22;29544;52.018;5.810;2023-03-26T00:03:14;16.80;59.50
43884;DHT22;29544;52.018;5.810;2023-03-26T00:05:41;16.80;59.50
43884;DHT22;29544;52.018;5.810;2023-03-26T00:08:07;16.80;59.50
43884;DHT22;29544;52.018;5.810;2023-03-26T00:10:35;16.70;59.50
43884;DHT22;29544;52.018;5.810;2023-03-26T00:13:01;16.70;59.40
43884;DHT22;29544;52.018;5.810;2023-03-26T00:15:27;16.70;59.40
43884;DHT22;29544;52.018;5.810;2023-03-26T00:17:53;16.70;59.40
43884;DHT22;29544;52.018;5.810;2023-03-26T00:20:18;16.70;59.30
43884;DHT22;29544;52.018;5.810;2023-03-26T00:22:44;16.70;59.30
43884;DHT22;29544;52.018;5.810;2023-03-26T00:25:10;16.70;59.30
43884;DHT22;29544;52.018;5.810;2023-03-26T00:27:36;16.70;59.20
43884;DHT22;29544;52.018;5.810;2023-03-26T00:30:02;16.70;59.20
43884;DHT22;29544;52.018;5.810;2023-03-26T00:32:29;16.60;59.10
43884;DHT22;29544;52.018;5.810;2023-03-26T00:34:56;16.60;59.20
43884;DHT22;29544;52.018;5.810;2023-03-26T00:37:22;16.60;59.10
43884;DHT22;29544;52.018;5.810;2023-03-26T00:39:52;16.60;59.10
43884;DHT22;29544;52.018;5.810;2023-03-26T00:42:17;16.60;59.10
43884;DHT22;29544;52.018;5.810;2023-03-26T00:44:43;16.60;59.10
43884;DHT22;29544;52.018;5.810;2023-03-26T00:47:08;16.60;59.10
43884;DHT22;29544;52.018;5.810;2023-03-26T00:49:34;16.60;59.10
43884;DHT22;29544;52.018;5.810;2023-03-26T00:51:59;16.60;59.10
43884;DHT22;29544;52.018;5.810;2023-03-26T00:54:27;16.60;59.10
43884;DHT22;29544;52.018;5.810;2023-03-26T00:56:53;16.50;59.10
43884;DHT22;29544;52.018;5.810;2023-03-26T00:59:20;16.50;59.10
43884;DHT22;29544;52.018;5.810;2023-03-26T01:01:46;16.50;59.10
43884;DHT22;29544;52.018;5.810;2023-03-26T01:04:25;16.60;59.20
43884;DHT22;29544;52.018;5.810;2023-03-26T01:06:52;16.50;59.10
43884;DHT22;29544;52.018;5.810;2023-03-26T01:09:20;16.50;59.10
43884;DHT22;29544;52.018;5.810;2023-03-26T01:11:47;16.50;59.10
43884;DHT22;29544;52.018;5.810;2023-03-26T01:14:17;16.50;59.20
43884;DHT22;29544;52.018;5.810;2023-03-26T01:22:04;16.50;59.20
43884;DHT22;29544;52.018;5.810;2023-03-26T01:24:30;16.50;59.20
43884;DHT22;29544;52.018;5.810;2023-03-26T01:27:08;16.50;59.20
43884;DHT22;29544;52.018;5.810;2023-03-26T01:29:48;16.50;59.20
43884;DHT22;29544;52.018;5.810;2023-03-26T01:32:34;16.40;59.20
43884;DHT22;29544;52.018;5.810;2023-03-26T01:38:14;16.40;59.20
43884;DHT22;29544;52.018;5.810;2023-03-26T01:43:53;16.40;59.20
43884;DHT22;29544;52.018;5.810;2023-03-26T01:46:23;16.40;59.30
43884;DHT22;29544;52.018;5.810;2023-03-26T01:48:50;16.40;59.30
43884;DHT22;29544;52.018;5.810;2023-03-26T01:51:28;16.40;59.30
43884;DHT22;29544;52.018;5.810;2023-03-26T01:53:54;16.40;59.30
43884;DHT22;29544;52.018;5.810;2023-03-26T01:56:39;16.40;59.30
43884;DHT22;29544;52.018;5.810;2023-03-26T01:59:37;16.40;59.40
43884;DHT22;29544;52.018;5.810;2023-03-26T02:02:25;16.40;59.30
43884;DHT22;29544;52.018;5.810;2023-03-26T02:05:02;16.40;59.40
43884;DHT22;29544;52.018;5.810;2023-03-26T02:07:53;16.40;59.40
43884;DHT22;29544;52.018;5.810;2023-03-26T02:10:26;16.30;59.30
43884;DHT22;29544;52.018;5.810;2023-03-26T02:12:52;16.30;59.30
43884;DHT22;29544;52.018;5.810;2023-03-26T02:15:18;16.30;59.40
43884;DHT22;29544;52.018;5.810;2023-03-26T02:17:45;16.40;59.40
43884;DHT22;29544;52.018;5.810;2023-03-26T02:20:12;16.30;59.40
43884;DHT22;29544;52.018;5.810;2023-03-26T02:22:38;16.30;59.40
43884;DHT22;29544;52.018;5.810;2023-03-26T02:25:18;16.30;59.40
43884;DHT22;29544;52.018;5.810;2023-03-26T02:27:45;16.30;59.40
43884;DHT22;29544;52.018;5.810;2023-03-26T02:30:16;16.30;59.40
43884;DHT22;29544;52.018;5.810;2023-03-26T02:32:42;16.30;59.40
43884;DHT22;29544;52.018;5.810;2023-03-26T02:35:09;16.30;59.40
43884;DHT22;29544;52.018;5.810;2023-03-26T02:37:35;16.30;59.50
43884;DHT22;29544;52.018;5.810;2023-03-26T02:40:01;16.30;59.50
43884;DHT22;29544;52.018;5.810;2023-03-26T02:42:28;16.30;59.50
43884;DHT22;29544;52.018;5.810;2023-03-26T02:44:54;16.30;59.50
43884;DHT22;29544;52.018;5.810;2023-03-26T02:47:19;16.30;59.50
43884;DHT22;29544;52.018;5.810;2023-03-26T02:49:45;16.20;59.50
43884;DHT22;29544;52.018;5.810;2023-03-26T02:52:11;16.20;59.50
43884;DHT22;29544;52.018;5.810;2023-03-26T02:54:36;16.20;59.50
43884;DHT22;29544;52.018;5.810;2023-03-26T02:57:02;16.30;59.60
43884;DHT22;29544;52.018;5.810;2023-03-26T02:59:28;16.20;59.50
43884;DHT22;29544;52.018;5.810;2023-03-26T03:01:53;16.20;59.50
43884;DHT22;29544;52.018;5.810;2023-03-26T03:04:19;16.20;59.50
43884;DHT22;29544;52.018;5.810;2023-03-26T03:06:44;16.20;59.60
43884;DHT22;29544;52.018;5.810;2023-03-26T03:09:10;16.20;59.60
43884;DHT22;29544;52.018;5.810;2023-03-26T03:11:38;16.20;59.60
43884;DHT22;29544;52.018;5.810;2023-03-26T03:14:05;16.20;59.60
43884;DHT22;29544;52.018;5.810;2023-03-26T03:16:31;16.20;59.60
43884;DHT22;29544;52.018;5.810;2023-03-26T03:18:57;16.20;59.60
43884;DHT22;29544;52.018;5.810;2023-03-26T03:21:24;16.20;59.60
43884;DHT22;29544;52.018;5.810;2023-03-26T03:23:50;16.20;59.70
43884;DHT22;29544;52.018;5.810;2023-03-26T03:26:18;16.20;59.70
43884;DHT22;29544;52.018;5.810;2023-03-26T03:28:49;16.20;59.60
43884;DHT22;29544;52.018;5.810;2023-03-26T03:31:16;16.20;59.70
43884;DHT22;29544;52.018;5.810;2023-03-26T03:33:42;16.20;59.70
43884;DHT22;29544;52.018;5.810;2023-03-26T03:36:09;16.20;59.70
43884;DHT22;29544;52.018;5.810;2023-03-26T03:38:39;16.20;59.70
43884;DHT22;29544;52.018;5.810;2023-03-26T03:41:06;16.20;60.30
43884;DHT22;29544;52.018;5.810;2023-03-26T03:43:32;16.20;59.70
43884;DHT22;29544;52.018;5.810;2023-03-26T03:45:58;16.20;59.70
43884;DHT22;29544;52.018;5.810;2023-03-26T03:48:24;16.20;59.80
43884;DHT22;29544;52.018;5.810;2023-03-26T03:50:50;16.20;59.80
43884;DHT22;29544;52.018;5.810;2023-03-26T03:53:15;16.10;59.70
43884;DHT22;29544;52.018;5.810;2023-03-26T03:55:43;16.10;59.70
43884;DHT22;29544;52.018;5.810;2023-03-26T03:58:26;16.10;59.80
43884;DHT22;29544;52.018;5.810;2023-03-26T04:00:53;16.10;59.80
43884;DHT22;29544;52.018;5.810;2023-03-26T04:03:26;16.10;59.80
43884;DHT22;29544;52.018;5.810;2023-03-26T04:05:55;16.10;59.70
43884;DHT22;29544;52.018;5.810;2023-03-26T04:08:21;16.10;59.80
43884;DHT22;29544;52.018;5.810;2023-03-26T04:10:48;16.10;59.80
43884;DHT22;29544;52.018;5.810;2023-03-26T04:13:14;16.10;59.80
43884;DHT22;29544;52.018;5.810;2023-03-26T04:15:40;16.10;59.80
43884;DHT22;29544;52.018;5.810;2023-03-26T04:18:06;16.10;59.80
43884;DHT22;29544;52.018;5.810;2023-03-26T04:20:39;16.10;59.80
43884;DHT22;29544;52.018;5.810;2023-03-26T04:23:06;16.10;59.80
43884;DHT22;29544;52.018;5.810;2023-03-26T04:25:33;16.10;59.80
43884;DHT22;29544;52.018;5.810;2023-03-26T04:28:02;16.10;59.80
43884;DHT22;29544;52.018;5.810;2023-03-26T04:30:31;16.10;59.90
43884;DHT22;29544;52.018;5.810;2023-03-26T04:32:58;16.00;59.80
43884;DHT22;29544;52.018;5.810;2023-03-26T04:35:30;16.10;59.90
43884;DHT22;29544;52.018;5.810;2023-03-26T04:37:59;16.10;59.90
43884;DHT22;29544;52.018;5.810;2023-03-26T04:40:25;16.00;59.90
43884;DHT22;29544;52.018;5.810;2023-03-26T04:42:50;16.00;59.90
43884;DHT22;29544;52.018;5.810;2023-03-26T04:45:18;16.00;59.90
43884;DHT22;29544;52.018;5.810;2023-03-26T04:47:47;16.00;59.90
43884;DHT22;29544;52.018;5.810;2023-03-26T04:50:13;16.00;59.90
43884;DHT22;29544;52.018;5.810;2023-03-26T04:52:39;16.00;59.90
43884;DHT22;29544;52.018;5.810;2023-03-26T04:55:13;16.00;59.90
43884;DHT22;29544;52.018;5.810;2023-03-26T04:57:43;16.00;59.90
43884;DHT22;29544;52.018;5.810;2023-03-26T05:00:13;16.00;59.90
43884;DHT22;29544;52.018;5.810;2023-03-26T05:02:44;16.00;59.90
43884;DHT22;29544;52.018;5.810;2023-03-26T05:05:14;16.00;60.00
43884;DHT22;29544;52.018;5.810;2023-03-26T05:07:39;16.00;60.00
43884;DHT22;29544;52.018;5.810;2023-03-26T05:10:06;16.00;60.00
43884;DHT22;29544;52.018;5.810;2023-03-26T05:12:32;16.00;60.00
43884;DHT22;29544;52.018;5.810;2023-03-26T05:14:58;16.00;60.00
43884;DHT22;29544;52.018;5.810;2023-03-26T05:17:25;16.00;60.00
43884;DHT22;29544;52.018;5.810;2023-03-26T05:19:50;16.00;60.00
43884;DHT22;29544;52.018;5.810;2023-03-26T05:22:17;16.00;60.00
43884;DHT22;29544;52.018;5.810;2023-03-26T05:24:43;16.00;60.10
43884;DHT22;29544;52.018;5.810;2023-03-26T05:27:13;16.00;60.10
43884;DHT22;29544;52.018;5.810;2023-03-26T05:29:39;16.00;60.10
43884;DHT22;29544;52.018;5.810;2023-03-26T05:32:06;15.90;60.00
43884;DHT22;29544;52.018;5.810;2023-03-26T05:34:31;16.00;60.10
43884;DHT22;29544;52.018;5.810;2023-03-26T05:36:57;16.00;60.10
43884;DHT22;29544;52.018;5.810;2023-03-26T05:39:22;15.90;60.10
43884;DHT22;29544;52.018;5.810;2023-03-26T05:41:50;15.90;60.00
43884;DHT22;29544;52.018;5.810;2023-03-26T05:44:17;15.90;60.00
43884;DHT22;29544;52.018;5.810;2023-03-26T05:46:43;15.90;60.10
43884;DHT22;29544;52.018;5.810;2023-03-26T05:49:08;15.90;60.00
43884;DHT22;29544;52.018;5.810;2023-03-26T05:51:34;15.90;60.10
43884;DHT22;29544;52.018;5.810;2023-03-26T05:53:59;15.90;60.10
43884;DHT22;29544;52.018;5.810;2023-03-26T05:56:25;15.90;60.10
43884;DHT22;29544;52.018;5.810;2023-03-26T05:58:50;15.90;60.10
43884;DHT22;29544;52.018;5.810;2023-03-26T06:01:16;15.90;60.10
43884;DHT22;29544;52.018;5.810;2023-03-26T06:03:43;15.90;60.10
43884;DHT22;29544;52.018;5.810;2023-03-26T06:06:11;15.90;60.10
43884;DHT22;29544;52.018;5.810;2023-03-26T06:08:43;15.90;60.10
43884;DHT22;29544;52.018;5.810;2023-03-26T06:11:11;15.90;60.20
43884;DHT22;29544;52.018;5.810;2023-03-26T06:13:38;15.90;60.20
43884;DHT22;29544;52.018;5.810;2023-03-26T06:16:04;15.90;60.10
43884;DHT22;29544;52.018;5.810;2023-03-26T06:18:30;15.90;60.10
43884;DHT22;29544;52.018;5.810;2023-03-26T06:20:55;15.90;60.20
43884;DHT22;29544;52.018;5.810;2023-03-26T06:23:21;15.90;60.10
43884;DHT22;29544;52.018;5.810;2023-03-26T06:25:47;15.90;60.80
43884;DHT22;29544;52.018;5.810;2023-03-26T06:28:14;15.90;60.20
43884;DHT22;29544;52.018;5.810;2023-03-26T06:30:40;15.90;60.20
43884;DHT22;29544;52.018;5.810;2023-03-26T06:33:05;15.90;60.20
43884;DHT22;29544;52.018;5.810;2023-03-26T06:35:31;15.90;60.20
43884;DHT22;29544;52.018;5.810;2023-03-26T06:37:57;15.90;60.20
43884;DHT22;29544;52.018;5.810;2023-03-26T06:40:23;15.90;60.20
43884;DHT22;29544;52.018;5.810;2023-03-26T06:42:49;15.90;60.20
43884;DHT22;29544;52.018;5.810;2023-03-26T06:45:14;15.90;60.20
43884;DHT22;29544;52.018;5.810;2023-03-26T06:47:40;15.90;60.30
43884;DHT22;29544;52.018;5.810;2023-03-26T06:50:06;15.80;60.20
43884;DHT22;29544;52.018;5.810;2023-03-26T06:52:32;15.80;60.20
43884;DHT22;29544;52.018;5.810;2023-03-26T06:54:57;15.80;60.20
43884;DHT22;29544;52.018;5.810;2023-03-26T06:57:23;15.80;60.20
43884;DHT22;29544;52.018;5.810;2023-03-26T06:59:48;15.80;60.20
43884;DHT22;29544;52.018;5.810;2023-03-26T07:02:14;15.90;60.30
43884;DHT22;29544;52.018;5.810;2023-03-26T07:04:39;15.80;60.20
43884;DHT22;29544;52.018;5.810;2023-03-26T07:07:05;15.90;60.30
43884;DHT22;29544;52.018;5.810;2023-03-26T07:09:31;15.80;60.30
43884;DHT22;29544;52.018;5.810;2023-03-26T07:11:56;15.80;60.30
43884;DHT22;29544;52.018;5.810;2023-03-26T07:14:23;15.80;60.30
43884;DHT22;29544;52.018;5.810;2023-03-26T07:16:52;15.80;60.30
43884;DHT22;29544;52.018;5.810;2023-03-26T07:19:17;15.80;60.30
43884;DHT22;29544;52.018;5.810;2023-03-26T07:21:43;15.80;60.30
43884;DHT22;29544;52.018;5.810;2023-03-26T07:24:11;15.80;60.30
43884;DHT22;29544;52.018;5.810;2023-03-26T07:26:55;15.80;60.30
43884;DHT22;29544;52.018;5.810;2023-03-26T07:29:46;15.80;60.40
43884;DHT22;29544;52.018;5.810;2023-03-26T07:32:26;15.80;60.40
43884;DHT22;29544;52.018;5.810;2023-03-26T07:35:00;15.80;60.40
43884;DHT22;29544;52.018;5.810;2023-03-26T07:43:00;15.80;60.50
43884;DHT22;29544;52.018;5.810;2023-03-26T07:45:39;15.80;60.40
43884;DHT22;29544;52.018;5.810;2023-03-26T07:48:23;15.80;60.40
43884;DHT22;29544;52.018;5.810;2023-03-26T07:50:53;15.80;60.40
43884;DHT22;29544;52.018;5.810;2023-03-26T07:53:19;15.80;60.50
43884;DHT22;29544;52.018;5.810;2023-03-26T07:58:45;15.80;60.40
43884;DHT22;29544;52.018;5.810;2023-03-26T08:01:31;15.80;60.40
43884;DHT22;29544;52.018;5.810;2023-03-26T08:06:54;15.80;60.40
43884;DHT22;29544;52.018;5.810;2023-03-26T08:09:25;15.80;60.40
43884;DHT22;29544;52.018;5.810;2023-03-26T08:12:16;15.80;60.40
43884;DHT22;29544;52.018;5.810;2023-03-26T08:17:33;15.80;60.70
43884;DHT22;29544;52.018;5.810;2023-03-26T08:22:54;15.80;60.60
43884;DHT22;29544;52.018;5.810;2023-03-26T08:25:26;15.80;60.70
43884;DHT22;29544;52.018;5.810;2023-03-26T08:30:27;15.80;60.70
43884;DHT22;29544;52.018;5.810;2023-03-26T08:33:11;15.80;60.60
43884;DHT22;29544;52.018;5.810;2023-03-26T08:35:37;15.80;60.70
43884;DHT22;29544;52.018;5.810;2023-03-26T08:38:14;15.80;60.60
43884;DHT22;29544;52.018;5.810;2023-03-26T08:51:59;15.80;60.50
43884;DHT22;29544;52.018;5.810;2023-03-26T08:54:51;15.80;60.40
43884;DHT22;29544;52.018;5.810;2023-03-26T08:57:48;15.80;60.40
43884;DHT22;29544;52.018;5.810;2023-03-26T09:20:47;15.80;60.50
43884;DHT22;29544;52.018;5.810;2023-03-26T09:23:36;15.80;60.70
43884;DHT22;29544;52.018;5.810;2023-03-26T09:40:18;15.80;61.20
43884;DHT22;29544;52.018;5.810;2023-03-26T09:43:15;15.80;62.20
43884;DHT22;29544;52.018;5.810;2023-03-26T09:48:50;15.90;63.80
43884;DHT22;29544;52.018;5.810;2023-03-26T09:51:42;15.90;63.40
43884;DHT22;29544;52.018;5.810;2023-03-26T09:57:18;15.90;63.10
43884;DHT22;29544;52.018;5.810;2023-03-26T10:00:00;15.90;62.70
43884;DHT22;29544;52.018;5.810;2023-03-26T10:08:50;15.90;62.20
43884;DHT22;29544;52.018;5.810;2023-03-26T10:14:11;15.90;62.40
43884;DHT22;29544;52.018;5.810;2023-03-26T10:17:21;15.90;62.20
43884;DHT22;29544;52.018;5.810;2023-03-26T10:19:56;15.90;62.10
43884;DHT22;29544;52.018;5.810;2023-03-26T10:22:42;15.90;61.90
43884;DHT22;29544;52.018;5.810;2023-03-26T10:25:29;15.90;61.90
43884;DHT22;29544;52.018;5.810;2023-03-26T10:28:08;15.80;61.70
43884;DHT22;29544;52.018;5.810;2023-03-26T10:30:47;15.80;61.60
43884;DHT22;29544;52.018;5.810;2023-03-26T10:33:29;15.90;61.60
43884;DHT22;29544;52.018;5.810;2023-03-26T10:38:55;15.80;61.40
43884;DHT22;29544;52.018;5.810;2023-03-26T10:44:24;15.80;61.30
43884;DHT22;29544;52.018;5.810;2023-03-26T10:49:34;15.80;61.20
43884;DHT22;29544;52.018;5.810;2023-03-26T10:52:07;15.80;61.20
43884;DHT22;29544;52.018;5.810;2023-03-26T10:55:35;15.80;61.20
43884;DHT22;29544;52.018;5.810;2023-03-26T10:57:52;15.80;61.10
43884;DHT22;29544;52.018;5.810;2023-03-26T11:00:19;15.80;61.00
43884;DHT22;29544;52.018;5.810;2023-03-26T11:06:18;15.80;61.10
43884;DHT22;29544;52.018;5.810;2023-03-26T11:08:53;15.80;61.00
43884;DHT22;29544;52.018;5.810;2023-03-26T11:11:37;15.80;61.00
43884;DHT22;29544;52.018;5.810;2023-03-26T11:14:17;15.80;60.90
43884;DHT22;29544;52.018;5.810;2023-03-26T11:28:24;16.00;62.70
43884;DHT22;29544;52.018;5.810;2023-03-26T11:33:59;16.10;62.50
43884;DHT22;29544;52.018;5.810;2023-03-26T11:36:34;16.20;62.60
43884;DHT22;29544;52.018;5.810;2023-03-26T11:39:03;16.30;62.80
43884;DHT22;29544;52.018;5.810;2023-03-26T11:41:33;16.40;62.40
43884;DHT22;29544;52.018;5.810;2023-03-26T11:44:11;16.40;62.30
43884;DHT22;29544;52.018;5.810;2023-03-26T11:46:42;16.50;62.50
43884;DHT22;29544;52.018;5.810;2023-03-26T11:49:11;16.50;62.30
43884;DHT22;29544;52.018;5.810;2023-03-26T11:51:41;16.60;62.20
43884;DHT22;29544;52.018;5.810;2023-03-26T11:54:10;16.70;61.90
43884;DHT22;29544;52.018;5.810;2023-03-26T11:56:40;16.70;61.70
43884;DHT22;29544;52.018;5.810;2023-03-26T11:59:16;16.80;61.70
43884;DHT22;29544;52.018;5.810;2023-03-26T12:01:50;16.80;61.70
43884;DHT22;29544;52.018;5.810;2023-03-26T12:04:38;16.80;61.50
43884;DHT22;29544;52.018;5.810;2023-03-26T12:07:30;16.90;61.30
43884;DHT22;29544;52.018;5.810;2023-03-26T12:09:58;16.90;61.40
43884;DHT22;29544;52.018;5.810;2023-03-26T12:12:32;16.90;61.20
43884;DHT22;29544;52.018;5.810;2023-03-26T12:15:00;17.00;61.10
43884;DHT22;29544;52.018;5.810;2023-03-26T12:17:36;17.00;61.00
43884;DHT22;29544;52.018;5.810;2023-03-26T12:22:56;17.10;61.00
43884;DHT22;29544;52.018;5.810;2023-03-26T12:25:34;17.10;61.00
43884;DHT22;29544;52.018;5.810;2023-03-26T12:28:00;17.20;60.90
43884;DHT22;29544;52.018;5.810;2023-03-26T12:30:38;17.20;60.80
43884;DHT22;29544;52.018;5.810;2023-03-26T12:33:14;17.30;60.70
43884;DHT22;29544;52.018;5.810;2023-03-26T12:35:42;17.30;60.60
43884;DHT22;29544;52.018;5.810;2023-03-26T12:38:32;17.30;60.50
43884;DHT22;29544;52.018;5.810;2023-03-26T12:41:07;17.30;60.30
43884;DHT22;29544;52.018;5.810;2023-03-26T12:43:39;17.40;60.30
43884;DHT22;29544;52.018;5.810;2023-03-26T12:48:45;17.40;60.20
43884;DHT22;29544;52.018;5.810;2023-03-26T12:57:22;17.50;60.10
43884;DHT22;29544;52.018;5.810;2023-03-26T13:00:27;17.50;59.90
43884;DHT22;29544;52.018;5.810;2023-03-26T13:16:55;17.60;59.70
43884;DHT22;29544;52.018;5.810;2023-03-26T13:25:18;17.70;59.40
43884;DHT22;29544;52.018;5.810;2023-03-26T13:27:56;17.70;59.40
43884;DHT22;29544;52.018;5.810;2023-03-26T13:30:43;17.70;59.40
43884;DHT22;29544;52.018;5.810;2023-03-26T13:33:22;17.80;59.40
43884;DHT22;29544;52.018;5.810;2023-03-26T13:36:10;17.80;59.60
43884;DHT22;29544;52.018;5.810;2023-03-26T13:42:08;17.80;59.60
43884;DHT22;29544;52.018;5.810;2023-03-26T13:44:57;17.80;59.80
43884;DHT22;29544;52.018;5.810;2023-03-26T13:47:28;17.80;59.80
43884;DHT22;29544;52.018;5.810;2023-03-26T13:50:00;17.90;59.90
43884;DHT22;29544;52.018;5.810;2023-03-26T13:52:39;17.90;59.90
43884;DHT22;29544;52.018;5.810;2023-03-26T13:55:28;17.90;59.80
43884;DHT22;29544;52.018;5.810;2023-03-26T13:58:12;17.90;59.80
43884;DHT22;29544;52.018;5.810;2023-03-26T14:09:45;17.90;59.70
43884;DHT22;29544;52.018;5.810;2023-03-26T14:15:05;17.90;59.80
43884;DHT22;29544;52.018;5.810;2023-03-26T14:18:14;18.00;59.90
43884;DHT22;29544;52.018;5.810;2023-03-26T14:21:08;17.90;59.90
43884;DHT22;29544;52.018;5.810;2023-03-26T14:26:31;18.00;59.90
43884;DHT22;29544;52.018;5.810;2023-03-26T14:34:38;18.10;59.80
43884;DHT22;29544;52.018;5.810;2023-03-26T14:40:06;18.10;59.80
43884;DHT22;29544;52.018;5.810;2023-03-26T14:42:56;18.10;59.80
43884;DHT22;29544;52.018;5.810;2023-03-26T14:46:06;18.20;59.80
43884;DHT22;29544;52.018;5.810;2023-03-26T14:49:04;18.20;60.00
43884;DHT22;29544;52.018;5.810;2023-03-26T14:51:55;18.20;60.00
43884;DHT22;29544;52.018;5.810;2023-03-26T14:54:25;18.20;60.20
43884;DHT22;29544;52.018;5.810;2023-03-26T15:00:18;18.20;60.30
43884;DHT22;29544;52.018;5.810;2023-03-26T15:03:05;18.30;60.40
43884;DHT22;29544;52.018;5.810;2023-03-26T15:06:14;18.20;60.50
43884;DHT22;29544;52.018;5.810;2023-03-26T15:11:38;18.20;60.90
43884;DHT22;29544;52.018;5.810;2023-03-26T15:14:40;18.20;60.90
43884;DHT22;29544;52.018;5.810;2023-03-26T15:29:00;18.20;61.10
43884;DHT22;29544;52.018;5.810;2023-03-26T15:39:42;18.20;61.10
43884;DHT22;29544;52.018;5.810;2023-03-26T15:45:41;18.20;61.00
43884;DHT22;29544;52.018;5.810;2023-03-26T15:54:05;18.20;61.00
43884;DHT22;29544;52.018;5.810;2023-03-26T15:56:57;18.20;60.90
43884;DHT22;29544;52.018;5.810;2023-03-26T16:02:36;18.20;61.10
43884;DHT22;29544;52.018;5.810;2023-03-26T16:10:50;18.20;61.30
43884;DHT22;29544;52.018;5.810;2023-03-26T16:13:32;18.20;61.30
43884;DHT22;29544;52.018;5.810;2023-03-26T16:18:44;18.20;61.10
43884;DHT22;29544;52.018;5.810;2023-03-26T16:21:34;18.20;61.10
43884;DHT22;29544;52.018;5.810;2023-03-26T16:34:28;18.50;61.40
43884;DHT22;29544;52.018;5.810;2023-03-26T16:37:04;18.60;61.50
43884;DHT22;29544;52.018;5.810;2023-03-26T16:39:40;18.70;61.40
43884;DHT22;29544;52.018;5.810;2023-03-26T16:42:27;18.70;61.40
43884;DHT22;29544;52.018;5.810;2023-03-26T16:53:44;18.90;60.90
43884;DHT22;29544;52.018;5.810;2023-03-26T16:56:26;18.90;60.70
43884;DHT22;29544;52.018;5.810;2023-03-26T17:01:46;18.90;60.50
43884;DHT22;29544;52.018;5.810;2023-03-26T17:04:24;18.90;60.40
43884;DHT22;29544;52.018;5.810;2023-03-26T17:09:31;19.00;60.50
43884;DHT22;29544;52.018;5.810;2023-03-26T17:12:12;19.00;60.70
43884;DHT22;29544;52.018;5.810;2023-03-26T17:19:56;19.00;61.20
43884;DHT22;29544;52.018;5.810;2023-03-26T17:28:04;19.00;61.20
43884;DHT22;29544;52.018;5.810;2023-03-26T17:30:50;19.00;61.10
43884;DHT22;29544;52.018;5.810;2023-03-26T17:41:06;19.10;60.70
43884;DHT22;29544;52.018;5.810;2023-03-26T17:46:37;19.10;60.60
43884;DHT22;29544;52.018;5.810;2023-03-26T17:49:13;19.10;60.40
43884;DHT22;29544;52.018;5.810;2023-03-26T17:54:40;19.10;60.30
43884;DHT22;29544;52.018;5.810;2023-03-26T17:57:20;19.20;60.20
43884;DHT22;29544;52.018;5.810;2023-03-26T17:59:47;19.20;60.10
43884;DHT22;29544;52.018;5.810;2023-03-26T18:02:17;19.20;60.00
43884;DHT22;29544;52.018;5.810;2023-03-26T18:04:46;19.20;59.80
43884;DHT22;29544;52.018;5.810;2023-03-26T18:07:42;19.20;59.80
43884;DHT22;29544;52.018;5.810;2023-03-26T18:10:30;19.20;59.80
43884;DHT22;29544;52.018;5.810;2023-03-26T18:18:33;19.20;59.80
43884;DHT22;29544;52.018;5.810;2023-03-26T18:21:03;19.20;59.90
43884;DHT22;29544;52.018;5.810;2023-03-26T18:23:36;19.20;59.80
43884;DHT22;29544;52.018;5.810;2023-03-26T18:26:31;19.20;59.80
43884;DHT22;29544;52.018;5.810;2023-03-26T18:31:40;19.20;59.60
43884;DHT22;29544;52.018;5.810;2023-03-26T18:34:12;19.20;59.60
43884;DHT22;29544;52.018;5.810;2023-03-26T18:36:39;19.30;59.60
43884;DHT22;29544;52.018;5.810;2023-03-26T18:39:10;19.30;59.50
43884;DHT22;29544;52.018;5.810;2023-03-26T18:41:37;19.30;59.50
43884;DHT22;29544;52.018;5.810;2023-03-26T18:44:12;19.30;59.50
43884;DHT22;29544;52.018;5.810;2023-03-26T18:46:39;19.30;59.40
43884;DHT22;29544;52.018;5.810;2023-03-26T18:49:05;19.40;59.40
43884;DHT22;29544;52.018;5.810;2023-03-26T18:51:32;19.40;59.40
43884;DHT22;29544;52.018;5.810;2023-03-26T18:53:59;19.40;59.40
43884;DHT22;29544;52.018;5.810;2023-03-26T18:56:36;19.40;59.40
43884;DHT22;29544;52.018;5.810;2023-03-26T18:59:23;19.40;59.30
43884;DHT22;29544;52.018;5.810;2023-03-26T19:01:54;19.50;59.30
43884;DHT22;29544;52.018;5.810;2023-03-26T19:04:22;19.50;59.20
43884;DHT22;29544;52.018;5.810;2023-03-26T19:06:48;19.50;59.20
43884;DHT22;29544;52.018;5.810;2023-03-26T19:09:19;19.50;59.30
43884;DHT22;29544;52.018;5.810;2023-03-26T19:11:48;19.60;59.30
43884;DHT22;29544;52.018;5.810;2023-03-26T19:14:18;19.60;59.20
43884;DHT22;29544;52.018;5.810;2023-03-26T19:16:51;19.60;59.20
43884;DHT22;29544;52.018;5.810;2023-03-26T19:19:21;19.70;59.40
43884;DHT22;29544;52.018;5.810;2023-03-26T19:21:48;19.80;59.40
43884;DHT22;29544;52.018;5.810;2023-03-26T19:24:14;19.80;59.30
43884;DHT22;29544;52.018;5.810;2023-03-26T19:26:41;19.90;59.10
43884;DHT22;29544;52.018;5.810;2023-03-26T19:29:12;19.90;59.00
43884;DHT22;29544;52.018;5.810;2023-03-26T19:31:38;19.90;58.90
43884;DHT22;29544;52.018;5.810;2023-03-26T19:36:54;20.00;58.60
43884;DHT22;29544;52.018;5.810;2023-03-26T19:39:38;20.00;58.50
43884;DHT22;29544;52.018;5.810;2023-03-26T19:42:05;20.00;58.50
43884;DHT22;29544;52.018;5.810;2023-03-26T19:44:31;20.00;58.50
43884;DHT22;29544;52.018;5.810;2023-03-26T19:47:07;20.00;58.40
43884;DHT22;29544;52.018;5.810;2023-03-26T19:49:48;20.10;58.50
43884;DHT22;29544;52.018;5.810;2023-03-26T19:57:35;20.20;58.10
43884;DHT22;29544;52.018;5.810;2023-03-26T20:00:04;20.20;57.90
43884;DHT22;29544;52.018;5.810;2023-03-26T20:02:33;20.20;57.80
43884;DHT22;29544;52.018;5.810;2023-03-26T20:04:59;20.20;57.70
43884;DHT22;29544;52.018;5.810;2023-03-26T20:07:24;20.20;57.70
43884;DHT22;29544;52.018;5.810;2023-03-26T20:09:53;20.30;57.80
43884;DHT22;29544;52.018;5.810;2023-03-26T20:12:19;20.30;57.80
43884;DHT22;29544;52.018;5.810;2023-03-26T20:14:45;20.30;57.80
43884;DHT22;29544;52.018;5.810;2023-03-26T20:17:16;20.40;57.90
43884;DHT22;29544;52.018;5.810;2023-03-26T20:19:43;20.40;57.80
43884;DHT22;29544;52.018;5.810;2023-03-26T20:22:17;20.40;57.70
43884;DHT22;29544;52.018;5.810;2023-03-26T20:24:48;20.40;57.50
43884;DHT22;29544;52.018;5.810;2023-03-26T20:27:15;20.40;57.20
43884;DHT22;29544;52.018;5.810;2023-03-26T20:29:40;20.50;57.20
43884;DHT22;29544;52.018;5.810;2023-03-26T20:32:20;20.50;57.10
43884;DHT22;29544;52.018;5.810;2023-03-26T20:34:46;20.50;57.20
43884;DHT22;29544;52.018;5.810;2023-03-26T20:37:15;20.50;57.10
43884;DHT22;29544;52.018;5.810;2023-03-26T20:39:41;20.50;57.10
43884;DHT22;29544;52.018;5.810;2023-03-26T20:42:08;20.50;57.10
43884;DHT22;29544;52.018;5.810;2023-03-26T20:44:33;20.50;56.90
43884;DHT22;29544;52.018;5.810;2023-03-26T20:46:59;20.50;56.80
43884;DHT22;29544;52.018;5.810;2023-03-26T20:49:25;20.50;56.70